Time;durP1;ratioP1;P1;durP2;ratioP2;P2;SDS_P1;SDS_P2;PMS_P1;PMS_P2;Temp;Humidity;BMP_temperature;BMP_pressure;BME280_temperature;BME280_humidity;BME280_pressure;Samples;Min_cycle;Max_cycle;Signal;HPM_P1;HPM_P2
2023/06/12 00:01:36;;;;;;;46.88;8.13;;;;;;;;;;5110061;28;20031;-43
2023/06/12 00:04:04;;;;;;;39.55;6.97;;;;;;;;;;5102921;28;20044;-45
2023/06/12 00:06:31;;;;;;;42.28;7.03;;;;;;;;;;5101015;28;20019;-44
2023/06/12 00:08:58;;;;;;;45.72;7.15;;;;;;;;;;5113995;28;20534;-44
2023/06/12 00:11:26;;;;;;;42.88;6.53;;;;;;;;;;5100146;28;20039;-46
2023/06/12 00:13:53;;;;;;;47.63;7.60;;;;;;;;;;5114012;28;20039;-44
2023/06/12 00:16:21;;;;;;;49.17;7.72;;;;;;;;;;5098904;28;20040;-44
2023/06/12 00:18:49;;;;;;;40.05;7.65;;;;;;;;;;5113967;28;20035;-44
2023/06/12 00:21:16;;;;;;;48.60;10.65;;;;;;;;;;5113855;28;20044;-45
2023/06/12 00:23:43;;;;;;;53.75;12.52;;;;;;;;;;5114043;28;20043;-44
2023/06/12 00:26:10;;;;;;;64.85;15.38;;;;;;;;;;5113874;28;20031;-44
2023/06/12 00:28:37;;;;;;;66.18;16.27;;;;;;;;;;5113852;28;20481;-44
2023/06/12 00:31:05;;;;;;;73.65;18.75;;;;;;;;;;5113799;28;20024;-45
2023/06/12 00:33:32;;;;;;;79.65;20.15;;;;;;;;;;5114049;28;20028;-44
2023/06/12 00:35:59;;;;;;;76.28;18.70;;;;;;;;;;5113832;28;20035;-45
2023/06/12 00:38:26;;;;;;;79.22;20.88;;;;;;;;;;5113827;28;20036;-44
2023/06/12 00:40:53;;;;;;;107.82;24.27;;;;;;;;;;5113700;28;20032;-44
2023/06/12 00:43:20;;;;;;;84.00;22.33;;;;;;;;;;5113697;28;20031;-45
2023/06/12 00:45:47;;;;;;;88.22;24.45;;;;;;;;;;5099486;28;20036;-38
2023/06/12 00:48:14;;;;;;;90.85;23.77;;;;;;;;;;5113253;28;20501;-44
2023/06/12 00:50:44;;;;;;;89.30;24.67;;;;;;;;;;5113411;28;20039;-45
2023/06/12 00:53:11;;;;;;;103.65;25.10;;;;;;;;;;5113569;28;20028;-45
2023/06/12 00:55:38;;;;;;;92.70;24.05;;;;;;;;;;5113353;28;20369;-45
2023/06/12 00:58:06;;;;;;;98.03;25.10;;;;;;;;;;5099460;28;20036;-45
2023/06/12 01:00:33;;;;;;;106.25;25.25;;;;;;;;;;5113436;28;20028;-47
2023/06/12 01:03:04;;;;;;;83.60;23.60;;;;;;;;;;5112634;28;20038;-48
2023/06/12 01:05:36;;;;;;;77.70;22.00;;;;;;;;;;5113294;28;20023;-46
2023/06/12 01:08:32;;;;;;;79.00;21.60;;;;;;;;;;5113025;28;20042;-46
2023/06/12 01:11:05;;;;;;;97.10;23.65;;;;;;;;;;5040404;28;20041;-45
2023/06/12 01:13:33;;;;;;;75.55;20.75;;;;;;;;;;5112738;28;20052;-46
2023/06/12 01:16:00;;;;;;;71.90;21.33;;;;;;;;;;5098202;28;20111;-45
2023/06/12 01:18:29;;;;;;;62.53;19.05;;;;;;;;;;5093184;28;20039;-45
2023/06/12 01:20:58;;;;;;;63.15;19.77;;;;;;;;;;5112677;28;20374;-45
2023/06/12 01:23:25;;;;;;;71.82;19.80;;;;;;;;;;5112260;28;20035;-45
2023/06/12 01:26:10;;;;;;;70.97;19.60;;;;;;;;;;5098788;28;20104;-46
2023/06/12 01:28:56;;;;;;;64.45;17.63;;;;;;;;;;5112553;28;20074;-45
2023/06/12 01:31:46;;;;;;;59.03;17.95;;;;;;;;;;5092250;28;20103;-45
2023/06/12 01:34:20;;;;;;;60.92;18.38;;;;;;;;;;5059237;28;20044;-45
2023/06/12 01:36:54;;;;;;;56.58;16.35;;;;;;;;;;5105309;28;20071;-44
2023/06/12 01:39:24;;;;;;;54.58;16.88;;;;;;;;;;5091914;28;20783;-45
2023/06/12 01:41:51;;;;;;;59.35;15.73;;;;;;;;;;5108112;28;20038;-45
2023/06/12 01:44:21;;;;;;;64.78;16.50;;;;;;;;;;5112210;28;20366;-48
2023/06/12 01:46:48;;;;;;;46.10;15.15;;;;;;;;;;5111960;28;20023;-46
2023/06/12 01:49:15;;;;;;;51.67;14.70;;;;;;;;;;5099730;28;20047;-46
2023/06/12 01:51:42;;;;;;;44.97;14.75;;;;;;;;;;5105508;28;20035;-45
2023/06/12 01:54:09;;;;;;;50.30;13.77;;;;;;;;;;5102290;28;20044;-48
2023/06/12 01:56:37;;;;;;;36.15;12.32;;;;;;;;;;5112199;28;20035;-45
2023/06/12 01:59:04;;;;;;;45.60;12.95;;;;;;;;;;5112236;28;20035;-47
2023/06/12 02:01:31;;;;;;;52.92;13.70;;;;;;;;;;5111809;28;20097;-46
2023/06/12 02:03:58;;;;;;;38.65;12.02;;;;;;;;;;5112160;28;20051;-47
2023/06/12 02:06:25;;;;;;;42.45;12.18;;;;;;;;;;5111337;28;20035;-45
2023/06/12 02:08:53;;;;;;;41.50;12.38;;;;;;;;;;5109915;28;20059;-45
2023/06/12 02:11:21;;;;;;;42.22;13.15;;;;;;;;;;5110288;28;20036;-44
2023/06/12 02:13:48;;;;;;;40.17;12.38;;;;;;;;;;5111417;28;20473;-46
2023/06/12 02:16:21;;;;;;;37.88;12.50;;;;;;;;;;5111560;28;20027;-46
2023/06/12 02:18:48;;;;;;;41.55;13.15;;;;;;;;;;5109369;28;20108;-45
2023/06/12 02:21:15;;;;;;;38.88;12.18;;;;;;;;;;5111562;28;20025;-45
2023/06/12 02:23:42;;;;;;;34.90;11.88;;;;;;;;;;5111629;28;20063;-44
2023/06/12 02:26:09;;;;;;;42.33;12.48;;;;;;;;;;5111475;28;20032;-46
2023/06/12 02:28:36;;;;;;;38.33;11.38;;;;;;;;;;5111012;28;20045;-44
2023/06/12 02:31:04;;;;;;;32.25;11.32;;;;;;;;;;5111616;28;20027;-44
2023/06/12 02:33:31;;;;;;;39.13;11.68;;;;;;;;;;5108826;28;20023;-45
2023/06/12 02:35:58;;;;;;;30.70;10.32;;;;;;;;;;5111300;28;20035;-45
2023/06/12 02:38:26;;;;;;;35.80;10.90;;;;;;;;;;5111401;28;20105;-45
2023/06/12 02:40:53;;;;;;;31.10;10.02;;;;;;;;;;5111267;28;20093;-44
2023/06/12 02:43:20;;;;;;;37.75;10.90;;;;;;;;;;5111354;28;20049;-45
2023/06/12 02:45:47;;;;;;;34.58;11.05;;;;;;;;;;5111485;28;20131;-44
2023/06/12 02:48:14;;;;;;;29.40;10.00;;;;;;;;;;5111594;28;20130;-44
2023/06/12 02:50:41;;;;;;;29.73;11.10;;;;;;;;;;5111929;28;20392;-44
2023/06/12 02:53:08;;;;;;;30.48;9.77;;;;;;;;;;5111943;28;20496;-45
2023/06/12 02:55:39;;;;;;;28.75;9.82;;;;;;;;;;5111964;28;20507;-44
2023/06/12 02:58:07;;;;;;;34.13;9.43;;;;;;;;;;5111881;28;20578;-45
2023/06/12 03:00:34;;;;;;;30.98;9.02;;;;;;;;;;5111926;28;20643;-44
2023/06/12 03:03:02;;;;;;;31.95;9.38;;;;;;;;;;5111906;28;20015;-44
2023/06/12 03:05:29;;;;;;;31.80;9.13;;;;;;;;;;5111682;28;20485;-44
2023/06/12 03:07:57;;;;;;;25.25;9.00;;;;;;;;;;5111681;28;20028;-44
2023/06/12 03:10:28;;;;;;;31.50;9.73;;;;;;;;;;5111887;28;20050;-46
2023/06/12 03:12:55;;;;;;;27.30;8.82;;;;;;;;;;5111582;28;20035;-44
2023/06/12 03:15:22;;;;;;;24.00;9.00;;;;;;;;;;5111584;28;20386;-44
2023/06/12 03:17:49;;;;;;;25.05;8.73;;;;;;;;;;5111679;28;20089;-45
2023/06/12 03:20:17;;;;;;;25.33;8.05;;;;;;;;;;5111741;28;20107;-44
2023/06/12 03:22:44;;;;;;;19.23;7.90;;;;;;;;;;5111734;28;20028;-45
2023/06/12 03:25:11;;;;;;;21.52;8.10;;;;;;;;;;5112763;28;20035;-44
2023/06/12 03:27:39;;;;;;;22.92;7.82;;;;;;;;;;5115327;28;20026;-45
2023/06/12 03:30:06;;;;;;;22.70;7.47;;;;;;;;;;5115364;28;20024;-45
2023/06/12 03:32:33;;;;;;;17.48;6.75;;;;;;;;;;5115516;28;20032;-46
2023/06/12 03:35:00;;;;;;;23.77;7.03;;;;;;;;;;5115360;28;20088;-45
2023/06/12 03:37:28;;;;;;;20.45;6.85;;;;;;;;;;5115370;28;20023;-45
2023/06/12 03:39:55;;;;;;;24.50;7.63;;;;;;;;;;5115200;28;20041;-45
2023/06/12 03:42:22;;;;;;;20.95;6.95;;;;;;;;;;5115260;28;20397;-44
2023/06/12 03:44:49;;;;;;;21.08;7.32;;;;;;;;;;5115274;28;20813;-44
2023/06/12 03:47:17;;;;;;;19.73;7.38;;;;;;;;;;5115196;28;20032;-44
2023/06/12 03:49:45;;;;;;;20.75;7.15;;;;;;;;;;5096449;28;20409;-44
2023/06/12 03:52:12;;;;;;;19.08;6.82;;;;;;;;;;5114845;28;20032;-44
2023/06/12 03:54:42;;;;;;;20.10;7.00;;;;;;;;;;5114993;28;20107;-45
2023/06/12 03:57:09;;;;;;;17.92;6.55;;;;;;;;;;5115013;28;20477;-44
2023/06/12 03:59:36;;;;;;;17.90;6.30;;;;;;;;;;5114861;28;20100;-44
2023/06/12 04:02:04;;;;;;;19.45;6.43;;;;;;;;;;5114971;28;20024;-45
2023/06/12 04:04:32;;;;;;;20.00;6.25;;;;;;;;;;5114727;28;20081;-44
2023/06/12 04:06:59;;;;;;;18.40;6.15;;;;;;;;;;5114612;28;20039;-44
2023/06/12 04:09:26;;;;;;;16.45;6.18;;;;;;;;;;5114625;28;20431;-45
2023/06/12 04:11:53;;;;;;;17.13;6.22;;;;;;;;;;5114636;28;20401;-44
2023/06/12 04:14:21;;;;;;;15.20;5.75;;;;;;;;;;5114697;28;20031;-44
2023/06/12 04:16:48;;;;;;;16.98;5.93;;;;;;;;;;5114580;28;20031;-44
2023/06/12 04:19:15;;;;;;;14.93;6.13;;;;;;;;;;5096252;28;20096;-46
2023/06/12 04:21:42;;;;;;;15.50;5.95;;;;;;;;;;5114506;28;20054;-44
2023/06/12 04:24:16;;;;;;;15.02;5.10;;;;;;;;;;5114476;28;20119;-45
2023/06/12 04:26:46;;;;;;;13.65;5.55;;;;;;;;;;5114466;28;20070;-44
2023/06/12 04:29:14;;;;;;;11.88;5.05;;;;;;;;;;5113999;28;20040;-44
2023/06/12 04:31:42;;;;;;;14.27;5.43;;;;;;;;;;5114309;28;20035;-45
2023/06/12 04:34:09;;;;;;;11.77;4.95;;;;;;;;;;5114295;28;20489;-44
2023/06/12 04:36:37;;;;;;;13.48;5.35;;;;;;;;;;5114068;28;20438;-44
2023/06/12 04:39:10;;;;;;;12.88;4.68;;;;;;;;;;5114026;28;20032;-45
2023/06/12 04:41:38;;;;;;;11.90;5.20;;;;;;;;;;5114319;28;20059;-44
2023/06/12 04:44:06;;;;;;;12.02;5.03;;;;;;;;;;5114086;28;20047;-44
2023/06/12 04:46:35;;;;;;;11.63;4.97;;;;;;;;;;5114061;28;20024;-44
2023/06/12 04:49:02;;;;;;;13.95;5.15;;;;;;;;;;5113274;28;20449;-45
2023/06/12 04:51:29;;;;;;;13.75;5.05;;;;;;;;;;5113657;28;20063;-44
2023/06/12 04:53:57;;;;;;;9.45;4.65;;;;;;;;;;5113857;28;20028;-45
2023/06/12 04:56:24;;;;;;;10.80;4.43;;;;;;;;;;5113737;28;20028;-46
2023/06/12 04:58:51;;;;;;;10.90;4.30;;;;;;;;;;5113652;28;20035;-44
2023/06/12 05:01:24;;;;;;;11.40;4.25;;;;;;;;;;5113675;28;20073;-44
2023/06/12 05:03:52;;;;;;;11.07;4.15;;;;;;;;;;5113731;28;20031;-44
2023/06/12 05:06:20;;;;;;;8.90;3.22;;;;;;;;;;5095238;28;20388;-45
2023/06/12 05:08:47;;;;;;;9.73;4.07;;;;;;;;;;5113287;28;20043;-44
2023/06/12 05:11:14;;;;;;;9.32;4.18;;;;;;;;;;5113526;28;20059;-44
2023/06/12 05:13:41;;;;;;;8.13;3.58;;;;;;;;;;5113436;28;20028;-44
2023/06/12 05:16:08;;;;;;;10.82;4.20;;;;;;;;;;5113486;28;20107;-46
2023/06/12 05:18:35;;;;;;;11.05;4.32;;;;;;;;;;5113387;28;20114;-44
2023/06/12 05:21:03;;;;;;;9.43;4.00;;;;;;;;;;5113327;28;20024;-45
2023/06/12 05:23:30;;;;;;;9.65;4.05;;;;;;;;;;5113102;28;20071;-45
2023/06/12 05:25:57;;;;;;;9.15;3.95;;;;;;;;;;5113149;28;20057;-44
2023/06/12 05:28:25;;;;;;;9.98;4.00;;;;;;;;;;5113056;28;20024;-44
2023/06/12 05:30:52;;;;;;;10.27;3.63;;;;;;;;;;5113222;28;20031;-45
2023/06/12 05:33:22;;;;;;;8.45;3.53;;;;;;;;;;5112915;28;20080;-45
2023/06/12 05:35:50;;;;;;;8.32;3.38;;;;;;;;;;5094450;28;20038;-45
2023/06/12 05:38:17;;;;;;;9.52;3.40;;;;;;;;;;5112867;28;20066;-45
2023/06/12 05:40:44;;;;;;;8.75;3.17;;;;;;;;;;5112982;28;20530;-45
2023/06/12 05:43:11;;;;;;;6.88;3.22;;;;;;;;;;5112966;28;20047;-45
2023/06/12 05:45:38;;;;;;;6.53;2.97;;;;;;;;;;5112923;28;20020;-45
2023/06/12 05:48:05;;;;;;;8.38;3.30;;;;;;;;;;5111999;28;20110;-45
2023/06/12 05:50:32;;;;;;;8.05;3.45;;;;;;;;;;5112799;28;20031;-44
2023/06/12 05:53:00;;;;;;;7.15;3.42;;;;;;;;;;5112753;28;20032;-44
2023/06/12 05:55:27;;;;;;;8.57;3.22;;;;;;;;;;5112741;28;20024;-45
2023/06/12 05:57:54;;;;;;;6.93;3.13;;;;;;;;;;5112606;28;20080;-44
2023/06/12 06:00:22;;;;;;;7.18;3.28;;;;;;;;;;5112670;28;20020;-46
2023/06/12 06:02:49;;;;;;;5.90;2.78;;;;;;;;;;5111253;28;20032;-45
2023/06/12 06:05:17;;;;;;;7.05;2.80;;;;;;;;;;5112540;28;20037;-44
2023/06/12 06:07:44;;;;;;;8.65;3.22;;;;;;;;;;5093954;28;20055;-44
2023/06/12 06:10:11;;;;;;;6.68;2.60;;;;;;;;;;5112533;28;20433;-44
2023/06/12 06:12:38;;;;;;;9.65;3.00;;;;;;;;;;5112475;28;20564;-44
2023/06/12 06:15:06;;;;;;;6.22;2.40;;;;;;;;;;5112363;28;20053;-44
2023/06/12 06:17:33;;;;;;;6.95;3.05;;;;;;;;;;5112308;28;20023;-47
2023/06/12 06:20:00;;;;;;;6.10;2.53;;;;;;;;;;5112338;28;20027;-44
2023/06/12 06:22:27;;;;;;;4.80;2.47;;;;;;;;;;5112337;28;20019;-45
2023/06/12 06:24:54;;;;;;;7.13;2.70;;;;;;;;;;5112278;28;20552;-45
2023/06/12 06:27:21;;;;;;;5.55;2.53;;;;;;;;;;5093854;28;20032;-44
2023/06/12 06:29:48;;;;;;;5.22;2.30;;;;;;;;;;5112091;28;20038;-44
2023/06/12 06:32:16;;;;;;;7.18;2.55;;;;;;;;;;5112262;28;20075;-45
2023/06/12 06:34:43;;;;;;;5.97;2.30;;;;;;;;;;5112098;28;20046;-44
2023/06/12 06:37:10;;;;;;;4.15;2.03;;;;;;;;;;5112187;28;20107;-45
2023/06/12 06:39:37;;;;;;;4.18;2.20;;;;;;;;;;5111992;28;20024;-44
2023/06/12 06:42:04;;;;;;;5.50;2.33;;;;;;;;;;5112115;28;20034;-44
2023/06/12 06:44:31;;;;;;;5.45;2.42;;;;;;;;;;5112106;28;20016;-45
2023/06/12 06:46:58;;;;;;;4.90;2.30;;;;;;;;;;5111920;28;20111;-44
2023/06/12 06:49:26;;;;;;;4.32;2.20;;;;;;;;;;5111700;28;20108;-44
2023/06/12 06:51:53;;;;;;;4.88;2.40;;;;;;;;;;5111825;28;20059;-45
2023/06/12 06:54:20;;;;;;;4.38;2.38;;;;;;;;;;5111994;28;20031;-44
2023/06/12 06:56:48;;;;;;;4.25;1.95;;;;;;;;;;5111886;28;20027;-45
2023/06/12 06:59:16;;;;;;;4.78;2.28;;;;;;;;;;5111887;28;20412;-45
2023/06/12 07:01:43;;;;;;;4.03;1.80;;;;;;;;;;5097716;28;20618;-44
2023/06/12 07:04:10;;;;;;;3.53;2.15;;;;;;;;;;5116044;28;20027;-44
2023/06/12 07:06:37;;;;;;;4.05;2.20;;;;;;;;;;5115955;28;20031;-44
2023/06/12 07:09:04;;;;;;;4.00;1.90;;;;;;;;;;5115752;28;20116;-44
2023/06/12 07:11:31;;;;;;;3.22;1.70;;;;;;;;;;5115826;28;20446;-44
2023/06/12 07:13:59;;;;;;;4.68;2.05;;;;;;;;;;5115915;28;20066;-44
2023/06/12 07:16:26;;;;;;;4.05;1.67;;;;;;;;;;5115712;28;20088;-45
2023/06/12 07:18:53;;;;;;;4.90;2.13;;;;;;;;;;5097341;28;20088;-44
2023/06/12 07:21:20;;;;;;;4.35;1.98;;;;;;;;;;5115702;28;20030;-44
2023/06/12 07:23:47;;;;;;;3.88;1.80;;;;;;;;;;5115697;28;20074;-44
2023/06/12 07:26:15;;;;;;;3.63;1.90;;;;;;;;;;5115657;28;20019;-44
2023/06/12 07:28:42;;;;;;;4.60;1.90;;;;;;;;;;5115205;28;20044;-44
2023/06/12 07:31:09;;;;;;;4.82;2.05;;;;;;;;;;5115518;28;20024;-45
2023/06/12 07:33:36;;;;;;;3.25;1.83;;;;;;;;;;5115417;28;20140;-46
2023/06/12 07:36:03;;;;;;;5.43;1.67;;;;;;;;;;5115480;28;20028;-44
2023/06/12 07:38:30;;;;;;;3.33;1.77;;;;;;;;;;5115338;28;20023;-44
2023/06/12 07:40:57;;;;;;;3.25;1.50;;;;;;;;;;5115332;28;20016;-45
2023/06/12 07:43:24;;;;;;;4.88;1.60;;;;;;;;;;5115296;28;20038;-44
2023/06/12 07:45:51;;;;;;;3.70;1.70;;;;;;;;;;5115244;28;20027;-45
2023/06/12 07:48:18;;;;;;;3.35;1.95;;;;;;;;;;5114857;28;20043;-45
2023/06/12 07:50:46;;;;;;;3.15;1.65;;;;;;;;;;5115164;28;20052;-45
2023/06/12 07:53:13;;;;;;;4.07;1.52;;;;;;;;;;5115126;28;20023;-44
2023/06/12 07:55:40;;;;;;;3.10;1.40;;;;;;;;;;5115059;28;20371;-45
2023/06/12 07:58:08;;;;;;;2.20;1.38;;;;;;;;;;5115056;28;20057;-46
2023/06/12 08:00:35;;;;;;;1.92;1.35;;;;;;;;;;5114846;28;20030;-45
2023/06/12 08:03:03;;;;;;;2.60;1.58;;;;;;;;;;5114912;28;20154;-45
2023/06/12 08:05:30;;;;;;;1.60;1.10;;;;;;;;;;5114856;28;20110;-44
2023/06/12 08:07:57;;;;;;;2.05;1.30;;;;;;;;;;5114691;28;20028;-45
2023/06/12 08:10:24;;;;;;;2.78;1.40;;;;;;;;;;5114395;28;20027;-44
2023/06/12 08:12:51;;;;;;;3.03;1.40;;;;;;;;;;5114738;28;20126;-45
2023/06/12 08:15:20;;;;;;;5.10;1.60;;;;;;;;;;5114604;28;20032;-44
2023/06/12 08:17:46;;;;;;;2.30;1.20;;;;;;;;;;5114659;28;20065;-44
2023/06/12 08:20:17;;;;;;;3.53;1.50;;;;;;;;;;5114618;28;20138;-45
2023/06/12 08:22:45;;;;;;;2.13;1.35;;;;;;;;;;5114591;28;20481;-44
2023/06/12 08:25:12;;;;;;;2.88;1.30;;;;;;;;;;5114357;28;20089;-45
2023/06/12 08:27:39;;;;;;;2.05;1.10;;;;;;;;;;5114306;28;20036;-45
2023/06/12 08:30:06;;;;;;;2.92;1.50;;;;;;;;;;5114310;28;20027;-45
2023/06/12 08:32:33;;;;;;;2.88;1.23;;;;;;;;;;5114421;28;20040;-44
2023/06/12 08:35:00;;;;;;;2.67;1.50;;;;;;;;;;5114328;28;20040;-44
2023/06/12 08:37:27;;;;;;;2.33;1.10;;;;;;;;;;5114195;28;20023;-45
2023/06/12 08:39:54;;;;;;;3.30;1.20;;;;;;;;;;5095864;28;20445;-45
2023/06/12 08:42:22;;;;;;;1.92;1.15;;;;;;;;;;5113973;28;20061;-44
2023/06/12 08:44:49;;;;;;;2.42;1.17;;;;;;;;;;5113974;28;20089;-44
2023/06/12 08:47:17;;;;;;;1.90;0.90;;;;;;;;;;5114096;28;20070;-44
2023/06/12 08:49:44;;;;;;;1.75;0.90;;;;;;;;;;5113723;28;20051;-45
2023/06/12 08:52:12;;;;;;;3.13;1.25;;;;;;;;;;5113792;28;20370;-44
2023/06/12 08:54:40;;;;;;;2.05;1.08;;;;;;;;;;5113955;28;20031;-44
2023/06/12 08:57:11;;;;;;;2.28;1.20;;;;;;;;;;5113660;28;20035;-44
2023/06/12 08:59:38;;;;;;;2.22;0.98;;;;;;;;;;5113684;28;20362;-44
2023/06/12 09:02:06;;;;;;;2.00;0.90;;;;;;;;;;5113729;28;20030;-44
2023/06/12 09:04:54;;;;;;;1.52;1.02;;;;;;;;;;5113494;28;20103;-44
2023/06/12 09:07:22;;;;;;;1.85;0.80;;;;;;;;;;5113672;28;20035;-44
2023/06/12 09:09:49;;;;;;;1.80;0.90;;;;;;;;;;5113519;28;20492;-44
2023/06/12 09:12:16;;;;;;;1.88;1.00;;;;;;;;;;5113578;28;20032;-44
2023/06/12 09:14:45;;;;;;;1.08;0.80;;;;;;;;;;5113524;28;20032;-44
2023/06/12 09:17:12;;;;;;;2.03;0.90;;;;;;;;;;5113488;28;20031;-44
2023/06/12 09:19:43;;;;;;;1.75;1.08;;;;;;;;;;5113396;28;20036;-45
2023/06/12 09:22:10;;;;;;;2.13;1.02;;;;;;;;;;5112648;28;20023;-45
2023/06/12 09:24:37;;;;;;;1.92;0.90;;;;;;;;;;5113108;28;20024;-44
2023/06/12 09:30:08;;;;;;;3.53;1.00;;;;;;;;;;4991097;27;2538964;-44
2023/06/12 09:32:35;;;;;;;1.65;0.80;;;;;;;;;;5077013;28;20047;-43
2023/06/12 09:35:03;;;;;;;2.17;1.02;;;;;;;;;;5086757;28;20028;-43
2023/06/12 09:37:31;;;;;;;3.17;0.80;;;;;;;;;;5079183;28;20386;-43
2023/06/12 09:40:10;;;;;;;4.07;1.30;;;;;;;;;;5076918;28;20417;-42
2023/06/12 09:42:41;;;;;;;3.50;0.88;;;;;;;;;;5078484;28;20389;-44
2023/06/12 09:45:12;;;;;;;7.32;1.10;;;;;;;;;;5076787;28;20089;-47
2023/06/12 09:47:46;;;;;;;2.97;1.00;;;;;;;;;;5064812;28;20200;-42
2023/06/12 09:50:14;;;;;;;3.05;1.00;;;;;;;;;;5070381;28;20490;-43
2023/06/12 09:52:41;;;;;;;5.20;0.93;;;;;;;;;;5088661;28;20550;-44
2023/06/12 09:55:09;;;;;;;5.82;1.10;;;;;;;;;;5088905;28;20024;-43
2023/06/12 09:57:37;;;;;;;2.33;1.10;;;;;;;;;;5088584;28;20478;-44
2023/06/12 10:00:11;;;;;;;4.35;1.10;;;;;;;;;;5088580;28;20031;-43
2023/06/12 10:02:42;;;;;;;6.38;1.13;;;;;;;;;;5088531;28;20395;-42
2023/06/12 10:05:10;;;;;;;7.47;1.15;;;;;;;;;;5088647;28;20485;-43
2023/06/12 10:07:41;;;;;;;4.20;1.02;;;;;;;;;;5088314;28;20044;-43
2023/06/12 10:10:08;;;;;;;5.38;1.30;;;;;;;;;;5088269;28;20062;-45
2023/06/12 10:12:35;;;;;;;5.05;1.05;;;;;;;;;;5088422;28;20096;-44
2023/06/12 10:15:03;;;;;;;2.80;1.08;;;;;;;;;;5088511;28;20462;-43
2023/06/12 10:17:31;;;;;;;2.97;1.30;;;;;;;;;;5088414;28;20024;-42
2023/06/12 10:19:58;;;;;;;6.07;1.05;;;;;;;;;;5088330;28;20025;-42
2023/06/12 10:22:25;;;;;;;3.97;1.00;;;;;;;;;;5088312;28;20078;-42
2023/06/12 10:24:53;;;;;;;4.25;1.05;;;;;;;;;;5069991;28;20469;-42
2023/06/12 10:27:20;;;;;;;4.43;1.10;;;;;;;;;;5088232;28;20085;-44
2023/06/12 10:29:55;;;;;;;6.15;1.15;;;;;;;;;;5087810;28;20135;-42
2023/06/12 10:32:22;;;;;;;2.53;0.88;;;;;;;;;;5087981;28;20442;-43
2023/06/12 10:34:53;;;;;;;6.72;1.10;;;;;;;;;;5088134;28;20024;-42
2023/06/12 10:37:27;;;;;;;3.45;1.00;;;;;;;;;;5088048;28;20020;-43
2023/06/12 10:40:17;;;;;;;2.72;1.05;;;;;;;;;;5081620;28;20067;-42
2023/06/12 10:42:44;;;;;;;2.53;1.25;;;;;;;;;;5061937;28;20036;-42
2023/06/12 10:45:23;;;;;;;2.47;0.88;;;;;;;;;;5074380;28;20390;-42
2023/06/12 10:48:11;;;;;;;2.50;1.00;;;;;;;;;;5074233;28;20040;-42
2023/06/12 10:50:41;;;;;;;2.75;1.25;;;;;;;;;;5074371;28;20036;-42
2023/06/12 10:53:15;;;;;;;5.07;1.10;;;;;;;;;;5074228;28;20033;-44
2023/06/12 10:55:42;;;;;;;3.92;1.08;;;;;;;;;;5072322;28;20510;-42
2023/06/12 10:58:19;;;;;;;2.58;1.00;;;;;;;;;;5067022;28;20474;-43
2023/06/12 11:00:47;;;;;;;2.47;1.10;;;;;;;;;;5074090;28;20074;-42
2023/06/12 11:03:17;;;;;;;4.68;1.15;;;;;;;;;;5064776;28;20541;-42
2023/06/12 11:05:51;;;;;;;3.58;1.15;;;;;;;;;;5065080;28;20091;-43
2023/06/12 11:08:18;;;;;;;6.20;1.13;;;;;;;;;;5060479;28;20051;-44
2023/06/12 11:10:45;;;;;;;3.97;1.40;;;;;;;;;;5071139;28;20080;-42
2023/06/12 11:13:13;;;;;;;6.47;1.27;;;;;;;;;;5073632;28;20040;-43
2023/06/12 11:15:44;;;;;;;3.88;1.30;;;;;;;;;;5079953;28;20042;-46
2023/06/12 11:18:12;;;;;;;3.60;1.40;;;;;;;;;;5093739;28;20078;-47
2023/06/12 11:20:40;;;;;;;5.68;1.20;;;;;;;;;;5093649;28;20055;-46
2023/06/12 11:23:07;;;;;;;8.30;1.30;;;;;;;;;;5092615;28;20020;-45
2023/06/12 11:25:44;;;;;;;6.60;1.20;;;;;;;;;;5093816;28;20221;-45
2023/06/12 11:28:15;;;;;;;5.70;1.20;;;;;;;;;;5093252;28;20066;-44
2023/06/12 11:30:47;;;;;;;6.30;1.47;;;;;;;;;;5087840;28;20051;-45
2023/06/12 11:33:16;;;;;;;3.75;1.20;;;;;;;;;;5071684;28;20263;-47
2023/06/12 11:35:44;;;;;;;6.80;1.30;;;;;;;;;;5073125;28;20040;-51
2023/06/12 11:38:18;;;;;;;7.90;1.33;;;;;;;;;;5072210;28;20067;-46
2023/06/12 11:40:46;;;;;;;5.18;1.30;;;;;;;;;;5061535;28;20517;-46
2023/06/12 11:43:13;;;;;;;6.88;1.23;;;;;;;;;;5060419;28;20493;-46
2023/06/12 11:45:43;;;;;;;4.03;1.40;;;;;;;;;;5061914;28;20028;-45
2023/06/12 11:48:16;;;;;;;6.20;1.10;;;;;;;;;;5063330;28;20033;-44
2023/06/12 11:50:45;;;;;;;10.32;1.50;;;;;;;;;;5064752;28;20401;-44
2023/06/12 11:53:13;;;;;;;4.63;1.25;;;;;;;;;;5055331;28;20036;-43
2023/06/12 11:55:40;;;;;;;5.00;1.30;;;;;;;;;;5034789;28;20028;-45
2023/06/12 11:58:07;;;;;;;6.75;1.17;;;;;;;;;;5052815;28;20074;-43
2023/06/12 12:00:35;;;;;;;4.55;1.17;;;;;;;;;;5052869;28;20028;-41
2023/06/12 12:03:03;;;;;;;6.18;1.50;;;;;;;;;;5052938;28;20029;-45
2023/06/12 12:05:35;;;;;;;6.00;1.30;;;;;;;;;;5051615;28;20032;-46
2023/06/12 12:08:04;;;;;;;14.55;1.80;;;;;;;;;;5051111;28;20055;-43
2023/06/12 12:10:33;;;;;;;6.07;0.90;;;;;;;;;;5052252;28;20099;-45
2023/06/12 12:13:01;;;;;;;7.13;1.17;;;;;;;;;;5052284;28;20123;-44
2023/06/12 12:15:29;;;;;;;7.50;1.13;;;;;;;;;;5050869;28;20044;-43
2023/06/12 12:17:56;;;;;;;4.55;1.20;;;;;;;;;;5052382;28;20071;-44
2023/06/12 12:20:24;;;;;;;4.47;1.20;;;;;;;;;;5054309;28;20017;-46
2023/06/12 12:22:55;;;;;;;7.90;1.23;;;;;;;;;;5072246;28;20024;-44
2023/06/12 12:25:26;;;;;;;8.32;1.30;;;;;;;;;;5072377;28;20035;-44
2023/06/12 12:27:54;;;;;;;3.10;0.90;;;;;;;;;;5072062;28;20054;-43
2023/06/12 12:30:21;;;;;;;7.57;1.40;;;;;;;;;;5052461;28;20467;-44
2023/06/12 12:32:49;;;;;;;7.63;1.75;;;;;;;;;;5052314;28;20471;-43
2023/06/12 12:35:16;;;;;;;9.13;1.20;;;;;;;;;;5052279;28;20025;-44
2023/06/12 12:37:44;;;;;;;7.80;1.20;;;;;;;;;;5052289;28;20021;-43
2023/06/12 12:40:13;;;;;;;7.00;1.50;;;;;;;;;;5052160;28;20068;-44
2023/06/12 12:42:44;;;;;;;7.35;1.08;;;;;;;;;;5052065;28;20045;-43
2023/06/12 12:45:12;;;;;;;6.30;1.10;;;;;;;;;;5052190;28;20029;-43
2023/06/12 12:47:44;;;;;;;6.05;1.48;;;;;;;;;;5052009;28;20738;-43
2023/06/12 12:50:10;;;;;;;;;;;;;;;;;;5052227;28;20105;-43
2023/06/12 12:52:38;;;;;;;5.97;1.23;;;;;;;;;;5051982;28;19913;-43
2023/06/12 12:55:06;;;;;;;8.60;1.25;;;;;;;;;;5051959;28;20104;-43
2023/06/12 12:57:36;;;;;;;10.55;1.45;;;;;;;;;;5051930;28;20544;-46
2023/06/12 13:00:09;;;;;;;5.72;0.93;;;;;;;;;;5051715;28;20041;-43
2023/06/12 13:02:35;;;;;;;;;;;;;;;;;;5052047;28;20149;-44
2023/06/12 13:05:03;;;;;;;3.90;1.10;;;;;;;;;;5051839;28;19904;-43
2023/06/12 13:07:31;;;;;;;8.52;1.60;;;;;;;;;;5051719;28;20490;-44
2023/06/12 13:09:58;;;;;;;7.70;1.20;;;;;;;;;;5051684;28;20555;-44
2023/06/12 13:12:25;;;;;;;6.05;1.40;;;;;;;;;;5051698;28;20048;-46
2023/06/12 13:14:52;;;;;;;3.47;1.00;;;;;;;;;;5051736;28;20052;-45
2023/06/12 13:17:19;;;;;;;7.07;1.42;;;;;;;;;;5051668;28;20036;-45
2023/06/12 13:19:46;;;;;;;7.25;1.25;;;;;;;;;;5051577;28;20393;-43
2023/06/12 13:22:14;;;;;;;8.15;1.05;;;;;;;;;;5051479;28;20064;-43
2023/06/12 13:24:41;;;;;;;5.75;1.02;;;;;;;;;;5051614;28;20040;-47
2023/06/12 13:27:08;;;;;;;4.57;1.13;;;;;;;;;;5051611;28;20025;-44
2023/06/12 13:29:35;;;;;;;3.63;1.05;;;;;;;;;;5051293;28;20040;-44
2023/06/12 13:32:03;;;;;;;16.98;1.42;;;;;;;;;;5051550;28;20033;-43
2023/06/12 13:34:30;;;;;;;2.67;1.00;;;;;;;;;;5051366;28;20068;-43
2023/06/12 13:36:57;;;;;;;5.55;1.27;;;;;;;;;;5051488;28;20407;-43
2023/06/12 13:39:24;;;;;;;5.45;1.10;;;;;;;;;;5051404;28;20111;-44
2023/06/12 13:41:52;;;;;;;7.68;1.08;;;;;;;;;;5051382;28;20086;-43
2023/06/12 13:44:19;;;;;;;5.75;1.20;;;;;;;;;;5051378;28;20033;-42
2023/06/12 13:46:47;;;;;;;5.05;1.30;;;;;;;;;;5051402;28;20028;-42
2023/06/12 13:49:14;;;;;;;6.68;0.93;;;;;;;;;;5051223;28;20495;-43
2023/06/12 13:51:41;;;;;;;3.28;1.10;;;;;;;;;;5051348;28;20400;-45
2023/06/12 13:54:09;;;;;;;4.47;1.00;;;;;;;;;;5051322;28;20060;-44
2023/06/12 13:56:38;;;;;;;7.75;0.93;;;;;;;;;;5051143;28;20033;-43
2023/06/12 13:59:05;;;;;;;3.30;0.85;;;;;;;;;;5051145;28;20056;-47
2023/06/12 14:01:32;;;;;;;5.13;1.00;;;;;;;;;;5051251;28;20112;-45
2023/06/12 14:04:00;;;;;;;7.75;1.48;;;;;;;;;;5051241;28;20394;-43
2023/06/12 14:06:27;;;;;;;4.07;1.10;;;;;;;;;;5051403;28;20033;-42
2023/06/12 14:08:56;;;;;;;5.03;1.13;;;;;;;;;;5050996;28;20064;-44
2023/06/12 14:11:23;;;;;;;6.90;1.02;;;;;;;;;;5051176;28;20079;-44
2023/06/12 14:13:50;;;;;;;5.68;1.10;;;;;;;;;;5051178;28;20474;-44
2023/06/12 14:16:17;;;;;;;4.15;0.90;;;;;;;;;;5054245;28;20035;-43
2023/06/12 14:18:45;;;;;;;3.70;1.20;;;;;;;;;;5054764;28;20037;-43
2023/06/12 14:21:12;;;;;;;5.15;1.27;;;;;;;;;;5054729;28;20037;-44
2023/06/12 14:23:44;;;;;;;11.73;1.20;;;;;;;;;;5054788;28;20529;-43
2023/06/12 14:26:12;;;;;;;4.82;1.00;;;;;;;;;;5054638;28;20119;-43
2023/06/12 14:28:39;;;;;;;4.13;0.88;;;;;;;;;;5054384;28;20049;-43
2023/06/12 14:31:06;;;;;;;6.22;1.30;;;;;;;;;;5054479;28;20053;-42
2023/06/12 14:33:33;;;;;;;8.88;1.20;;;;;;;;;;5054573;28;20025;-44
2023/06/12 14:36:00;;;;;;;7.07;1.20;;;;;;;;;;5054527;28;20040;-45
2023/06/12 14:38:28;;;;;;;5.75;1.50;;;;;;;;;;5054352;28;20036;-42
2023/06/12 14:40:55;;;;;;;2.95;1.05;;;;;;;;;;5054267;28;20025;-44
2023/06/12 14:43:22;;;;;;;6.63;1.02;;;;;;;;;;5054387;28;20056;-44
2023/06/12 14:45:49;;;;;;;6.82;1.30;;;;;;;;;;5054364;28;20478;-44